Time,TemperatureF,DewpointF,PressureIn,WindDirection,WindDirectionDegrees,WindSpeedMPH,WindSpeedGustMPH,Humidity,HourlyPrecipIn,Conditions,Clouds,dailyrainin,SoftwareType,DateUTC
2013-08-16 00:13:00,57.0,53.0,30.09,East,95,0.0,0.0,86,0.00,,,0.00,,2013-08-16 04:13:00,
2013-08-16 00:23:00,57.0,53.0,30.10,East,95,0.0,0.0,87,0.00,,,0.00,,2013-08-16 04:23:00,
2013-08-16 00:42:00,56.0,52.0,30.10,East,95,0.0,0.0,87,0.00,,,0.00,,2013-08-16 04:42:00,
2013-08-16 00:53:00,56.0,52.0,30.10,East,95,0.0,0.0,88,0.00,,,0.00,,2013-08-16 04:53:00,
2013-08-16 01:11:00,55.0,52.0,30.10,East,95,0.0,0.0,89,0.00,,,0.00,,2013-08-16 05:11:00,
2013-08-16 01:21:00,55.0,52.0,30.09,East,95,0.0,0.0,90,0.00,,,0.00,,2013-08-16 05:21:00,
2013-08-16 01:42:00,55.0,52.0,30.09,East,95,0.0,0.0,90,0.00,,,0.00,,2013-08-16 05:42:00,
2013-08-16 01:58:00,55.0,52.0,30.09,East,95,0.0,0.0,90,0.00,,,0.00,,2013-08-16 05:58:00,
2013-08-16 03:00:00,55.0,52.0,30.09,East,95,0.0,0.0,90,0.00,,,0.00,,2013-08-16 07:00:00,
2013-08-16 03:11:00,55.0,52.0,30.10,East,95,0.0,0.0,91,0.00,,,0.00,,2013-08-16 07:11:00,
2013-08-16 03:21:00,56.0,53.0,30.10,East,95,0.0,0.0,90,0.00,,,0.00,,2013-08-16 07:21:00,
2013-08-16 03:42:00,55.0,52.0,30.10,East,95,0.0,0.0,89,0.00,,,0.00,,2013-08-16 07:42:00,
2013-08-16 03:52:00,55.0,52.0,30.09,East,95,0.0,0.0,89,0.00,,,0.00,,2013-08-16 07:52:00,
2013-08-16 04:11:00,54.0,51.0,30.09,East,95,0.0,0.0,90,0.00,,,0.00,,2013-08-16 08:11:00,
2013-08-16 04:21:00,54.0,51.0,30.09,East,95,0.0,0.0,91,0.00,,,0.00,,2013-08-16 08:21:00,
2013-08-16 04:42:00,54.0,52.0,30.09,East,95,0.0,0.0,92,0.00,,,0.00,,2013-08-16 08:42:00,
2013-08-16 04:52:00,55.0,53.0,30.09,East,95,0.0,0.0,93,0.00,,,0.00,,2013-08-16 08:52:00,
2013-08-16 05:11:00,55.0,53.0,30.08,East,95,0.0,0.0,92,0.00,,,0.00,,2013-08-16 09:11:00,
2013-08-16 05:21:00,56.0,54.0,30.09,East,95,0.0,0.0,92,0.00,,,0.00,,2013-08-16 09:21:00,
2013-08-16 05:42:00,56.0,54.0,30.09,East,95,0.0,0.0,92,0.00,,,0.00,,2013-08-16 09:42:00,
2013-08-16 05:53:00,56.0,53.0,30.09,East,95,0.0,0.0,91,0.00,,,0.00,,2013-08-16 09:53:00,
2013-08-16 06:13:00,56.0,53.0,30.09,East,95,0.0,0.0,90,0.00,,,0.00,,2013-08-16 10:13:00,
2013-08-16 06:23:00,55.0,52.0,30.09,East,95,0.0,0.0,91,0.00,,,0.00,,2013-08-16 10:23:00,
2013-08-16 06:42:00,55.0,52.0,30.09,East,95,0.0,0.0,91,0.00,,,0.00,,2013-08-16 10:42:00,
2013-08-16 06:52:00,55.0,52.0,30.09,East,95,0.0,0.0,91,0.00,,,0.00,,2013-08-16 10:52:00,
2013-08-16 07:12:00,55.0,52.0,30.10,East,95,0.0,0.0,90,0.00,,,0.00,,2013-08-16 11:12:00,
2013-08-16 07:21:00,55.0,52.0,30.10,East,95,0.0,0.0,91,0.00,,,0.00,,2013-08-16 11:21:00,
2013-08-16 07:42:00,55.0,53.0,30.10,East,95,0.0,0.0,92,0.00,,,0.00,,2013-08-16 11:42:00,
2013-08-16 07:52:00,55.0,53.0,30.11,East,95,0.0,0.0,92,0.00,,,0.00,,2013-08-16 11:52:00,
2013-08-16 08:12:00,56.0,54.0,30.11,East,95,0.0,0.0,92,0.00,,,0.00,,2013-08-16 12:12:00,
2013-08-16 08:21:00,56.0,54.0,30.11,East,95,0.0,0.0,92,0.00,,,0.00,,2013-08-16 12:21:00,
2013-08-16 08:42:00,57.0,53.0,30.11,East,95,0.0,2.0,88,0.00,,,0.00,,2013-08-16 12:42:00,
2013-08-16 08:52:00,58.0,54.0,30.12,East,94,0.0,0.0,86,0.00,,,0.00,,2013-08-16 12:52:00,
2013-08-16 09:11:00,58.0,54.0,30.14,East,94,0.0,0.0,87,0.00,,,0.00,,2013-08-16 13:11:00,
2013-08-16 09:21:00,59.0,55.0,30.14,ENE,60,0.0,1.0,87,0.00,,,0.00,,2013-08-16 13:21:00,
2013-08-16 09:42:00,60.0,55.0,30.14,ENE,60,0.0,1.0,85,0.00,,,0.00,,2013-08-16 13:42:00,
2013-08-16 09:53:00,61.0,55.0,30.14,ENE,60,0.0,2.0,82,0.00,,,0.00,,2013-08-16 13:53:00,
2013-08-16 10:11:00,62.0,55.0,30.14,ENE,69,1.0,3.0,79,0.00,,,0.00,,2013-08-16 14:11:00,
2013-08-16 10:22:00,63.0,55.0,30.13,East,86,1.0,3.0,76,0.00,,,0.00,,2013-08-16 14:22:00,
2013-08-16 10:42:00,64.0,55.0,30.13,ENE,76,0.0,2.0,73,0.00,,,0.00,,2013-08-16 14:42:00,
2013-08-16 10:52:00,65.0,55.0,30.13,East,91,1.0,3.0,71,0.00,,,0.00,,2013-08-16 14:52:00,
2013-08-16 11:12:00,66.0,55.0,30.13,ENE,78,1.0,4.0,68,0.00,,,0.00,,2013-08-16 15:12:00,
2013-08-16 11:22:00,67.0,57.0,30.13,ENE,78,1.0,4.0,71,0.00,,,0.00,,2013-08-16 15:22:00,
2013-08-16 11:43:00,68.0,54.0,30.14,ESE,107,1.0,5.0,62,0.00,,,0.00,,2013-08-16 15:43:00,
2013-08-16 11:56:00,68.0,54.0,30.14,ESE,104,2.0,6.0,61,0.00,,,0.00,,2013-08-16 15:56:00,
2013-08-16 12:13:00,69.0,54.0,30.14,East,96,3.0,6.0,58,0.00,,,0.00,,2013-08-16 16:13:00,
2013-08-16 12:23:00,70.0,55.0,30.14,East,90,2.0,5.0,58,0.00,,,0.00,,2013-08-16 16:23:00,
2013-08-16 12:43:00,71.0,54.0,30.14,East,82,4.0,7.0,54,0.00,,,0.00,,2013-08-16 16:43:00,
2013-08-16 12:57:00,72.0,54.0,30.14,East,96,5.0,8.0,53,0.00,,,0.00,,2013-08-16 16:57:00,
2013-08-16 13:12:00,70.0,55.0,30.14,NNE,27,2.0,5.0,58,0.00,,,0.00,,2013-08-16 17:12:00,
2013-08-16 13:28:00,70.0,54.0,30.13,East,86,4.0,8.0,57,0.00,,,0.00,,2013-08-16 17:28:00,
2013-08-16 13:47:00,71.0,54.0,30.13,East,80,4.0,8.0,56,0.00,,,0.00,,2013-08-16 17:47:00,
2013-08-16 14:00:00,71.0,54.0,30.13,ENE,75,5.0,8.0,55,0.00,,,0.00,,2013-08-16 18:00:00,
2013-08-16 14:15:00,71.0,55.0,30.13,East,83,2.0,5.0,58,0.00,,,0.00,,2013-08-16 18:15:00,
2013-08-16 14:28:00,71.0,55.0,30.12,East,85,0.0,7.0,58,0.00,,,0.00,,2013-08-16 18:28:00,
2013-08-16 14:50:00,-999.0,-99.9,30.12,ESE,117,3.0,5.0,55,0.00,,,0.00,,2013-08-16 18:50:00,
2013-08-16 15:14:00,73.0,55.0,30.12,ESE,114,2.0,7.0,54,0.00,,,0.00,,2013-08-16 19:14:00,
2013-08-16 15:25:00,72.0,55.0,30.12,ENE,68,1.0,5.0,56,0.00,,,0.00,,2013-08-16 19:25:00,
2013-08-16 15:46:00,72.0,55.0,30.11,East,90,1.0,6.0,55,0.00,,,0.00,,2013-08-16 19:46:00,
2013-08-16 15:55:00,72.0,55.0,30.11,ESE,105,2.0,6.0,55,0.00,,,0.00,,2013-08-16 19:55:00,
2013-08-16 16:11:00,73.0,56.0,30.11,East,82,2.0,5.0,56,0.00,,,0.00,,2013-08-16 20:11:00,
2013-08-16 16:23:00,74.0,57.0,30.11,East,85,2.0,7.0,55,0.00,,,0.00,,2013-08-16 20:23:00,
2013-08-16 16:44:00,74.0,57.0,30.10,East,96,3.0,6.0,55,0.00,,,0.00,,2013-08-16 20:44:00,
2013-08-16 16:52:00,74.0,57.0,30.10,ENE,71,1.0,7.0,55,0.00,,,0.00,,2013-08-16 20:52:00,
2013-08-16 17:11:00,74.0,56.0,30.10,ENE,62,4.0,9.0,53,0.00,,,0.00,,2013-08-16 21:11:00,
2013-08-16 17:25:00,74.0,56.0,30.10,NE,50,4.0,9.0,54,0.00,,,0.00,,2013-08-16 21:25:00,
2013-08-16 17:40:00,-999.0,-99.9,30.10,NE,52,2.0,8.0,-999,0.00,,,0.00,,2013-08-16 21:40:00,
2013-08-16 17:53:00,74.0,55.0,30.10,ENE,59,3.0,7.0,52,0.00,,,0.00,,2013-08-16 21:53:00,
2013-08-16 18:13:00,74.0,55.0,30.10,ENE,66,3.0,6.0,52,0.00,,,0.00,,2013-08-16 22:13:00,
2013-08-16 18:24:00,73.0,56.0,30.10,ENE,68,2.0,8.0,56,0.00,,,0.00,,2013-08-16 22:24:00,
2013-08-16 18:43:00,73.0,55.0,30.10,ENE,71,3.0,6.0,54,0.00,,,0.00,,2013-08-16 22:43:00,
2013-08-16 18:52:00,72.0,55.0,30.10,NE,35,3.0,7.0,55,0.00,,,0.00,,2013-08-16 22:52:00,
2013-08-16 19:12:00,72.0,55.0,30.10,ENE,74,3.0,7.0,56,0.00,,,0.00,,2013-08-16 23:12:00,
2013-08-16 19:23:00,71.0,55.0,30.10,ENE,78,1.0,5.0,57,0.00,,,0.00,,2013-08-16 23:23:00,
2013-08-16 19:42:00,71.0,56.0,30.10,NE,45,1.0,4.0,59,0.00,,,0.00,,2013-08-16 23:42:00,
2013-08-16 19:52:00,70.0,55.0,30.10,NE,40,1.0,4.0,60,0.00,,,0.00,,2013-08-16 23:52:00,
2013-08-16 20:11:00,70.0,56.0,30.10,NE,49,1.0,5.0,61,0.00,,,0.00,,2013-08-17 00:11:00,
2013-08-16 20:21:00,69.0,55.0,30.11,NE,43,0.0,3.0,62,0.00,,,0.00,,2013-08-17 00:21:00,
2013-08-16 20:42:00,68.0,55.0,30.11,NE,43,0.0,2.0,64,0.00,,,0.00,,2013-08-17 00:42:00,
2013-08-16 20:52:00,68.0,56.0,30.11,NE,43,0.0,1.0,65,0.00,,,0.00,,2013-08-17 00:52:00,
2013-08-16 21:11:00,67.0,56.0,30.11,NE,43,0.0,0.0,67,0.00,,,0.00,,2013-08-17 01:11:00,
2013-08-16 21:21:00,66.0,56.0,30.11,NE,43,0.0,0.0,69,0.00,,,0.00,,2013-08-17 01:21:00,
2013-08-16 21:42:00,65.0,55.0,30.11,NE,43,0.0,0.0,71,0.00,,,0.00,,2013-08-17 01:42:00,
2013-08-16 21:52:00,64.0,55.0,30.12,NE,43,0.0,0.0,73,0.00,,,0.00,,2013-08-17 01:52:00,
2013-08-16 22:11:00,63.0,55.0,30.12,NE,43,0.0,0.0,74,0.00,,,0.00,,2013-08-17 02:11:00,
2013-08-16 22:21:00,63.0,55.0,30.12,NE,43,0.0,0.0,75,0.00,,,0.00,,2013-08-17 02:21:00,
2013-08-16 22:42:00,63.0,55.0,30.12,NE,43,0.0,0.0,76,0.00,,,0.00,,2013-08-17 02:42:00,
2013-08-16 22:52:00,63.0,56.0,30.12,NE,43,0.0,0.0,77,0.00,,,0.00,,2013-08-17 02:52:00,
2013-08-16 23:11:00,62.0,56.0,30.13,NE,43,0.0,0.0,80,0.00,,,0.00,,2013-08-17 03:11:00,
2013-08-16 23:22:00,61.0,55.0,30.13,NE,43,0.0,0.0,81,0.00,,,0.00,,2013-08-17 03:22:00,
2013-08-16 23:43:00,61.0,55.0,30.13,NE,43,0.0,0.0,82,0.00,,,0.00,,2013-08-17 03:43:00,
2013-08-16 23:53:00,61.0,56.0,30.13,NE,43,0.0,0.0,83,0.00,,,0.00,,2013-08-17 03:53:00,